Time;durP1;ratioP1;P1;durP2;ratioP2;P2;SDS_P1;SDS_P2;PMS_P1;PMS_P2;Temp;Humidity;BMP_temperature;BMP_pressure;BME280_temperature;BME280_humidity;BME280_pressure;Samples;Min_cycle;Max_cycle;Signal;HPM_P1;HPM_P2
2023/04/17 00:01:39;;;;;;;52.72;37.92;;;;;;;10.37;100.00;99910.06;5051739;28;20049;-76
2023/04/17 00:04:09;;;;;;;47.17;34.88;;;;;;;10.42;100.00;99938.50;5051799;28;20037;-76
2023/04/17 00:06:35;;;;;;;45.03;34.13;;;;;;;10.20;100.00;99912.47;5051658;28;20063;-76
2023/04/17 00:09:01;;;;;;;56.75;47.33;;;;;;;10.13;100.00;99909.25;5051729;28;20024;-76
2023/04/17 00:11:26;;;;;;;46.60;36.53;;;;;;;10.20;100.00;99926.34;5052149;28;20035;-76
2023/04/17 00:13:51;;;;;;;45.50;34.75;;;;;;;10.03;100.00;99894.94;5051577;28;20116;-76
2023/04/17 00:16:17;;;;;;;42.40;33.50;;;;;;;10.16;100.00;99926.53;5051683;28;20036;-76
2023/04/17 00:18:42;;;;;;;50.97;37.80;;;;;;;10.08;100.00;99919.03;5051507;28;20028;-76
2023/04/17 00:21:08;;;;;;;49.72;36.45;;;;;;;10.04;100.00;99930.47;5051581;28;20029;-76
2023/04/17 00:23:33;;;;;;;47.03;35.75;;;;;;;10.00;100.00;99923.69;5051747;28;20052;-76
2023/04/17 00:25:59;;;;;;;48.85;37.60;;;;;;;9.96;100.00;99928.16;5051453;28;20041;-75
2023/04/17 00:28:24;;;;;;;46.35;35.80;;;;;;;9.95;100.00;99930.84;5051979;28;20025;-76
2023/04/17 00:30:49;;;;;;;49.90;37.85;;;;;;;9.80;100.00;99911.44;5051456;28;20037;-76
2023/04/17 00:33:15;;;;;;;49.17;36.17;;;;;;;9.69;100.00;99908.41;5051659;28;20021;-76
2023/04/17 00:35:40;;;;;;;54.47;39.08;;;;;;;9.81;100.00;99931.34;5051237;28;20557;-76
2023/04/17 00:38:07;;;;;;;51.22;36.78;;;;;;;9.77;100.00;99928.94;5051465;28;20029;-76
2023/04/17 00:40:33;;;;;;;51.45;38.70;;;;;;;9.68;100.00;99923.19;5051684;28;20028;-76
2023/04/17 00:43:03;;;;;;;48.60;37.30;;;;;;;9.68;100.00;99930.97;5051366;28;20116;-77
2023/04/17 00:45:29;;;;;;;51.83;39.58;;;;;;;9.47;100.00;99911.00;5051484;28;20385;-76
2023/04/17 00:47:57;;;;;;;51.70;38.67;;;;;;;9.32;100.00;99903.78;5051214;28;20630;-76
2023/04/17 00:50:23;;;;;;;56.13;40.38;;;;;;;9.49;100.00;99927.41;5051365;28;20124;-76
2023/04/17 00:52:49;;;;;;;54.67;40.00;;;;;;;9.43;100.00;99920.66;5051306;28;20098;-76
2023/04/17 00:55:14;;;;;;;54.83;40.03;;;;;;;9.42;100.00;99907.72;5051317;28;20037;-76
2023/04/17 00:57:42;;;;;;;60.28;42.92;;;;;;;9.47;100.00;99921.41;5051036;28;20067;-76
2023/04/17 01:00:09;;;;;;;58.10;41.35;;;;;;;9.36;100.00;99921.81;5051327;28;20434;-76
2023/04/17 01:02:34;;;;;;;55.47;41.47;;;;;;;9.46;100.00;99924.91;5051338;28;20028;-76
2023/04/17 01:05:00;;;;;;;54.70;41.13;;;;;;;9.41;100.00;99926.84;5050923;28;20033;-76
2023/04/17 01:07:26;;;;;;;61.53;42.75;;;;;;;9.27;100.00;99906.56;5051400;28;20021;-76
2023/04/17 01:09:53;;;;;;;58.28;40.42;;;;;;;9.45;100.00;99928.41;5052739;28;20021;-76
2023/04/17 01:12:19;;;;;;;54.05;40.05;;;;;;;9.21;100.00;99893.78;5054972;28;20106;-76
2023/04/17 01:14:45;;;;;;;59.20;40.72;;;;;;;9.27;100.00;99903.97;5054638;28;20032;-76
2023/04/17 01:17:13;;;;;;;57.05;40.55;;;;;;;9.19;100.00;99939.78;5054822;28;20032;-76
2023/04/17 01:19:39;;;;;;;55.88;40.85;;;;;;;9.11;100.00;99908.88;5054689;28;20036;-76
2023/04/17 01:22:04;;;;;;;62.00;42.70;;;;;;;9.14;100.00;99908.78;5054616;28;20029;-76
2023/04/17 01:24:29;;;;;;;53.90;39.70;;;;;;;9.21;100.00;99925.81;5054655;28;20032;-76
2023/04/17 01:26:55;;;;;;;59.20;40.60;;;;;;;8.94;100.00;99901.69;5054390;28;20449;-76
2023/04/17 01:29:20;;;;;;;52.85;39.58;;;;;;;9.03;100.00;99926.50;5054663;28;20025;-76
2023/04/17 01:31:46;;;;;;;56.45;39.83;;;;;;;8.84;100.00;99908.09;5054123;28;20095;-76
2023/04/17 01:34:11;;;;;;;60.42;39.30;;;;;;;8.91;100.00;99919.13;5054375;28;20488;-76
2023/04/17 01:36:36;;;;;;;61.08;40.30;;;;;;;8.95;100.00;99921.56;5054502;28;20032;-76
2023/04/17 01:39:02;;;;;;;66.32;40.90;;;;;;;9.05;100.00;99935.06;5054300;28;20484;-76
2023/04/17 01:41:28;;;;;;;61.72;40.15;;;;;;;8.98;100.00;99928.41;5054415;28;20102;-76
2023/04/17 01:43:53;;;;;;;63.53;42.95;;;;;;;9.08;100.00;99937.56;5054101;28;20025;-76
2023/04/17 01:46:19;;;;;;;61.33;41.03;;;;;;;9.05;100.00;99929.03;5054190;28;20041;-76
2023/04/17 01:48:44;;;;;;;69.10;42.17;;;;;;;9.11;100.00;99940.06;5053848;28;20060;-76
2023/04/17 01:51:09;;;;;;;75.18;43.25;;;;;;;9.19;100.00;99942.38;5054299;28;20505;-76
2023/04/17 01:53:36;;;;;;;74.45;46.38;;;;;;;9.15;100.00;99930.41;5054222;28;20499;-76
2023/04/17 01:56:02;;;;;;;63.08;43.63;;;;;;;9.07;100.00;99935.03;5053995;28;20506;-76
2023/04/17 01:58:28;;;;;;;67.40;44.95;;;;;;;8.92;100.00;99903.47;5054020;28;20049;-76
2023/04/17 02:00:53;;;;;;;67.78;44.03;;;;;;;8.99;100.00;99928.34;5053727;28;20033;-76
2023/04/17 02:03:18;;;;;;;71.15;46.35;;;;;;;8.99;100.00;99932.69;5053962;28;20390;-76
2023/04/17 02:05:45;;;;;;;73.85;46.28;;;;;;;8.95;100.00;99931.09;5053700;28;20029;-76
2023/04/17 02:08:11;;;;;;;73.30;46.78;;;;;;;8.92;100.00;99931.22;5054050;28;20104;-76
2023/04/17 02:10:36;;;;;;;75.18;48.53;;;;;;;9.06;100.00;99952.38;5053753;28;20109;-76
2023/04/17 02:13:01;;;;;;;65.90;44.00;;;;;;;9.10;100.00;99955.69;5053586;28;20104;-76
2023/04/17 02:15:26;;;;;;;68.68;47.17;;;;;;;9.12;100.00;99967.72;5053597;28;20025;-76
2023/04/17 02:17:52;;;;;;;63.50;45.08;;;;;;;9.12;100.00;99965.13;5053375;28;20024;-76
2023/04/17 02:20:17;;;;;;;62.65;44.45;;;;;;;9.10;100.00;99966.94;5053494;28;20025;-76
2023/04/17 02:22:43;;;;;;;68.07;46.65;;;;;;;9.14;100.00;99968.53;5053196;28;20025;-76
2023/04/17 02:25:08;;;;;;;73.95;47.80;;;;;;;9.09;100.00;99965.22;5052178;28;20041;-76
2023/04/17 02:27:34;;;;;;;68.18;47.92;;;;;;;9.04;100.00;99945.53;5053625;28;20061;-76
2023/04/17 02:29:59;;;;;;;70.13;47.83;;;;;;;9.17;100.00;99957.16;5053171;28;20439;-76
2023/04/17 02:32:25;;;;;;;79.20;52.75;;;;;;;9.10;100.00;99950.47;5053412;28;20017;-76
2023/04/17 02:34:51;;;;;;;71.50;50.47;;;;;;;9.10;100.00;99948.75;5053251;28;20430;-76
2023/04/17 02:37:16;;;;;;;77.85;50.20;;;;;;;9.07;100.00;99943.66;5053436;28;20025;-76
2023/04/17 02:39:41;;;;;;;77.43;50.55;;;;;;;9.18;100.00;99958.84;5053279;28;20022;-76
2023/04/17 02:42:07;;;;;;;78.10;52.28;;;;;;;9.11;100.00;99941.81;5053063;28;20025;-76
2023/04/17 02:44:32;;;;;;;74.90;51.28;;;;;;;9.19;100.00;99956.22;5053189;28;20412;-76
2023/04/17 02:46:58;;;;;;;77.18;53.03;;;;;;;9.23;100.00;99951.75;5052739;28;20067;-76
2023/04/17 02:49:23;;;;;;;81.63;52.22;;;;;;;8.76;100.00;99897.13;5053017;28;20126;-76
2023/04/17 02:51:48;;;;;;;79.45;52.95;;;;;;;9.08;100.00;99960.09;5053016;28;20545;-76
2023/04/17 02:54:13;;;;;;;82.10;54.75;;;;;;;9.06;100.00;99954.97;5053111;28;20068;-76
2023/04/17 02:56:39;;;;;;;81.40;55.15;;;;;;;9.04;100.00;99954.16;5053035;28;20021;-76
2023/04/17 02:59:04;;;;;;;79.28;54.58;;;;;;;8.96;100.00;99930.19;5052588;28;20079;-76
2023/04/17 03:01:30;;;;;;;87.22;56.58;;;;;;;8.86;100.00;99916.69;5052692;28;20021;-76
2023/04/17 03:03:55;;;;;;;80.22;53.65;;;;;;;8.98;100.00;99931.84;5053038;28;20056;-76
2023/04/17 03:06:22;;;;;;;80.10;53.38;;;;;;;9.08;100.00;99952.31;5052791;28;20082;-76
2023/04/17 03:08:48;;;;;;;83.00;57.78;;;;;;;9.00;100.00;99955.16;5052673;28;20029;-76
2023/04/17 03:11:13;;;;;;;80.85;57.03;;;;;;;8.87;100.00;99926.19;5052417;28;20031;-76
2023/04/17 03:13:39;;;;;;;82.93;54.90;;;;;;;9.10;100.00;99973.88;5052612;28;20383;-76
2023/04/17 03:16:04;;;;;;;79.55;52.88;;;;;;;9.11;100.00;99970.41;5052058;28;20025;-76
2023/04/17 03:18:30;;;;;;;75.18;50.50;;;;;;;9.03;100.00;99960.25;5052818;28;20051;-76
2023/04/17 03:20:56;;;;;;;72.32;48.20;;;;;;;9.13;100.00;99973.78;5052358;28;20082;-76
2023/04/17 03:23:21;;;;;;;79.88;52.70;;;;;;;9.25;100.00;99979.38;5052804;28;20039;-76
2023/04/17 03:25:47;;;;;;;78.78;52.67;;;;;;;9.27;100.00;99979.34;5052412;28;20020;-76
2023/04/17 03:28:13;;;;;;;85.50;54.58;;;;;;;9.25;100.00;99981.97;5052167;28;20033;-76
2023/04/17 03:30:38;;;;;;;81.20;52.42;;;;;;;9.16;100.00;99966.72;5052202;28;20053;-76
2023/04/17 03:33:03;;;;;;;82.13;55.75;;;;;;;9.16;100.00;99997.06;5051963;28;20061;-76
2023/04/17 03:35:29;;;;;;;91.45;57.55;;;;;;;9.12;100.00;99993.72;5052306;28;20067;-76
2023/04/17 03:37:54;;;;;;;90.95;57.22;;;;;;;9.02;100.00;99978.50;5051949;28;20028;-76
2023/04/17 03:40:19;;;;;;;90.13;58.42;;;;;;;8.92;100.00;99968.41;5052263;28;20140;-76
2023/04/17 03:42:45;;;;;;;90.32;56.38;;;;;;;8.89;100.00;99976.34;5052142;28;20060;-76
2023/04/17 03:45:10;;;;;;;92.18;58.08;;;;;;;8.92;100.00;99999.59;5051771;28;20035;-76
2023/04/17 03:47:35;;;;;;;91.13;58.38;;;;;;;8.81;100.00;99985.31;5051951;28;20029;-76
2023/04/17 03:50:01;;;;;;;89.63;57.70;;;;;;;8.80;100.00;99994.81;5051749;28;20033;-76
2023/04/17 03:52:26;;;;;;;91.30;59.05;;;;;;;8.78;100.00;99995.78;5052024;28;20017;-76
2023/04/17 03:54:51;;;;;;;94.72;59.78;;;;;;;8.82;100.00;99995.63;5051815;28;20457;-76
2023/04/17 03:57:17;;;;;;;94.45;61.17;;;;;;;8.69;100.00;99983.97;5051930;28;20385;-76
2023/04/17 03:59:42;;;;;;;94.88;61.92;;;;;;;8.74;100.00;100002.81;5051908;28;20020;-76
2023/04/17 04:02:07;;;;;;;92.13;59.78;;;;;;;8.78;100.00;99996.63;5051582;28;20132;-76
2023/04/17 04:04:33;;;;;;;93.28;61.05;;;;;;;8.80;100.00;99987.03;5052045;28;20106;-76
2023/04/17 04:07:00;;;;;;;99.32;62.75;;;;;;;8.94;100.00;99999.56;5051688;28;20017;-76
2023/04/17 04:09:26;;;;;;;90.60;60.92;;;;;;;8.87;100.00;99979.88;5051924;28;20075;-76
2023/04/17 04:11:51;;;;;;;90.05;56.70;;;;;;;8.95;100.00;100012.47;5051836;28;20025;-76
2023/04/17 04:14:16;;;;;;;87.90;58.50;;;;;;;8.92;100.00;99983.16;5051594;28;20029;-76
2023/04/17 04:16:42;;;;;;;88.30;57.13;;;;;;;8.97;100.00;99979.53;5052150;28;20029;-76
2023/04/17 04:19:07;;;;;;;82.38;55.72;;;;;;;9.19;100.00;100002.16;5051619;28;20107;-76
2023/04/17 04:21:33;;;;;;;81.47;54.72;;;;;;;9.22;100.00;100000.28;5051791;28;20025;-76
2023/04/17 04:23:59;;;;;;;81.10;55.17;;;;;;;9.36;100.00;100002.41;5051598;28;20091;-76
2023/04/17 04:26:26;;;;;;;86.95;57.25;;;;;;;9.38;100.00;99989.34;5051656;28;20033;-76
2023/04/17 04:28:52;;;;;;;88.53;61.22;;;;;;;9.61;100.00;100017.97;5051458;28;20037;-76
2023/04/17 04:31:18;;;;;;;87.10;59.65;;;;;;;9.59;100.00;100024.94;5051294;28;20055;-76
2023/04/17 04:33:44;;;;;;;86.68;58.95;;;;;;;9.58;100.00;100023.25;5051752;28;20591;-76
2023/04/17 04:36:12;;;;;;;84.72;55.60;;;;;;;9.59;100.00;100013.72;5051340;28;20044;-76
2023/04/17 04:38:39;;;;;;;93.55;62.53;;;;;;;9.67;100.00;100029.88;5051500;28;20099;-76
2023/04/17 04:41:09;;;;;;;92.25;62.47;;;;;;;9.66;100.00;100033.41;5051581;28;20033;-76
2023/04/17 04:43:35;;;;;;;95.25;61.33;;;;;;;9.73;100.00;100025.31;5051424;28;20033;-76
2023/04/17 04:46:00;;;;;;;93.95;61.50;;;;;;;9.54;100.00;100002.63;5054662;28;20029;-76
2023/04/17 04:48:25;;;;;;;108.97;69.20;;;;;;;9.55;100.00;100012.13;5055450;28;20031;-76
2023/04/17 04:50:51;;;;;;;100.05;66.13;;;;;;;9.80;100.00;100032.88;5055397;28;20060;-76
2023/04/17 04:53:16;;;;;;;100.68;64.80;;;;;;;9.67;100.00;99990.88;5055081;28;20128;-76
2023/04/17 04:55:42;;;;;;;95.82;61.50;;;;;;;9.93;100.00;100021.94;5055210;28;20029;-76
2023/04/17 04:58:07;;;;;;;96.57;63.08;;;;;;;10.10;100.00;100036.06;5054889;28;20025;-76
2023/04/17 05:00:32;;;;;;;93.25;61.78;;;;;;;10.06;100.00;100018.88;5053832;28;20029;-76
2023/04/17 05:02:58;;;;;;;92.93;61.10;;;;;;;10.26;100.00;100037.19;5054921;28;20108;-76
2023/04/17 05:05:24;;;;;;;91.93;60.20;;;;;;;10.30;100.00;100038.78;5055132;28;20116;-76
2023/04/17 05:07:49;;;;;;;91.50;61.05;;;;;;;10.21;100.00;100016.53;5055002;28;20029;-76
2023/04/17 05:10:15;;;;;;;85.43;56.40;;;;;;;9.96;100.00;100015.78;5054769;28;20058;-76
2023/04/17 05:12:41;;;;;;;86.68;52.70;;;;;;;10.13;100.00;100038.56;5055161;28;20167;-76
2023/04/17 05:15:07;;;;;;;85.43;57.88;;;;;;;10.15;100.00;100024.56;5054504;28;20033;-76
2023/04/17 05:17:32;;;;;;;86.57;57.40;;;;;;;10.37;100.00;100031.59;5054982;28;20032;-76
2023/04/17 05:19:57;;;;;;;91.10;54.13;;;;;;;10.61;99.62;100045.38;5054606;28;20021;-76
2023/04/17 05:22:23;;;;;;;79.22;53.80;;;;;;;10.86;98.25;100045.22;5054927;28;20025;-77
2023/04/17 05:24:48;;;;;;;81.45;49.88;;;;;;;11.16;96.44;100033.47;5054688;28;20108;-76
2023/04/17 05:27:13;;;;;;;81.13;53.88;;;;;;;11.29;94.50;100035.56;5054396;28;20025;-77
2023/04/17 05:29:39;;;;;;;72.55;51.72;;;;;;;11.82;93.45;100035.81;5054542;28;20025;-77
2023/04/17 05:32:04;;;;;;;75.47;53.03;;;;;;;12.29;90.98;100053.66;5054420;28;20060;-77
2023/04/17 05:34:30;;;;;;;70.47;48.65;;;;;;;12.80;89.32;100052.06;5054430;28;20094;-77
2023/04/17 05:36:56;;;;;;;73.22;46.28;;;;;;;13.34;86.49;100052.03;5054410;28;20058;-77
2023/04/17 05:39:21;;;;;;;68.82;50.08;;;;;;;13.50;84.04;100073.00;5054280;28;20025;-77
2023/04/17 05:41:46;;;;;;;64.63;49.38;;;;;;;13.28;83.54;100047.97;5054286;28;20055;-77
2023/04/17 05:44:12;;;;;;;64.43;47.25;;;;;;;12.81;83.97;100029.38;5053916;28;20424;-77
2023/04/17 05:46:37;;;;;;;67.57;47.45;;;;;;;13.15;84.26;100071.25;5054417;28;20021;-77
2023/04/17 05:49:02;;;;;;;58.95;44.28;;;;;;;13.02;83.66;100043.16;5053871;28;20396;-77
2023/04/17 05:51:28;;;;;;;54.58;44.75;;;;;;;14.09;82.45;100058.50;5054450;28;20032;-78
2023/04/17 05:53:53;;;;;;;56.10;45.90;;;;;;;15.47;77.13;100062.81;5054428;28;20029;-78
2023/04/17 05:56:19;;;;;;;53.05;39.85;;;;;;;16.23;73.21;100066.94;5052758;28;20033;-78
2023/04/17 05:58:44;;;;;;;50.30;39.40;;;;;;;16.78;70.65;100055.50;5053872;28;20031;-78
2023/04/17 06:01:11;;;;;;;50.83;40.47;;;;;;;16.73;69.94;100044.44;5053930;28;20025;-78
2023/04/17 06:03:37;;;;;;;45.20;38.20;;;;;;;16.27;70.48;100042.13;5054111;28;20029;-78
2023/04/17 06:06:03;;;;;;;46.13;35.83;;;;;;;16.33;70.55;100051.41;5053676;28;20380;-78
2023/04/17 06:08:28;;;;;;;46.40;37.97;;;;;;;16.54;70.74;100067.59;5053907;28;20078;-78
2023/04/17 06:10:54;;;;;;;46.03;38.78;;;;;;;17.30;68.78;100064.31;5053636;28;20025;-78
2023/04/17 06:13:20;;;;;;;43.60;36.35;;;;;;;17.44;67.20;100061.59;5053506;28;20033;-79
2023/04/17 06:15:45;;;;;;;43.97;37.45;;;;;;;17.12;68.01;100056.72;5053913;28;20132;-78
2023/04/17 06:18:11;;;;;;;41.42;36.05;;;;;;;16.85;68.92;100069.09;5053649;28;20459;-78
2023/04/17 06:20:36;;;;;;;43.20;37.70;;;;;;;16.37;69.70;100055.53;5053744;28;20024;-79
2023/04/17 06:23:02;;;;;;;45.10;37.47;;;;;;;16.37;69.36;100051.09;5053447;28;20043;-78
2023/04/17 06:25:27;;;;;;;40.03;35.70;;;;;;;16.27;69.30;100078.09;5052903;28;20028;-78
2023/04/17 06:27:52;;;;;;;39.60;33.47;;;;;;;15.69;70.22;100086.00;5053450;28;20036;-77
2023/04/17 06:30:18;;;;;;;45.35;37.58;;;;;;;15.47;71.68;100068.06;5053222;28;20076;-78
2023/04/17 06:32:43;;;;;;;46.50;38.90;;;;;;;15.67;72.41;100080.03;5053547;28;20115;-78
2023/04/17 06:35:09;;;;;;;46.60;35.55;;;;;;;16.14;71.00;100085.91;5053078;28;20031;-78
2023/04/17 06:37:35;;;;;;;49.10;39.70;;;;;;;17.10;68.17;100073.56;5053409;28;20416;-78
2023/04/17 06:40:00;;;;;;;60.05;46.45;;;;;;;17.91;66.86;100068.88;5053371;28;20024;-78
2023/04/17 06:42:25;;;;;;;56.47;42.90;;;;;;;19.10;64.16;100084.91;5052944;28;20511;-79
2023/04/17 06:44:51;;;;;;;49.90;40.70;;;;;;;19.26;61.90;100085.44;5053269;28;20469;-78
2023/04/17 06:47:16;;;;;;;41.60;34.70;;;;;;;20.41;58.64;100079.94;5053014;28;20102;-78
2023/04/17 06:49:41;;;;;;;45.83;35.90;;;;;;;20.63;57.79;100075.56;5053198;28;20025;-78
2023/04/17 06:52:07;;;;;;;47.67;36.38;;;;;;;20.37;58.30;100097.03;5052707;28;20040;-78
2023/04/17 06:54:32;;;;;;;42.08;32.85;;;;;;;19.45;59.12;100083.06;5052992;28;20021;-78
2023/04/17 06:56:57;;;;;;;41.63;34.13;;;;;;;19.35;60.19;100103.22;5052841;28;20056;-78
2023/04/17 06:59:23;;;;;;;43.30;33.97;;;;;;;20.94;56.97;100087.13;5053019;28;20028;-78
2023/04/17 07:01:48;;;;;;;34.80;28.65;;;;;;;21.53;54.30;100099.00;5052977;28;20029;-78
2023/04/17 07:04:14;;;;;;;33.13;28.15;;;;;;;22.32;52.68;100107.19;5052667;28;20029;-78
2023/04/17 07:06:39;;;;;;;31.25;25.73;;;;;;;23.30;49.84;100101.84;5052371;28;20376;-78
2023/04/17 07:09:05;;;;;;;35.05;26.08;;;;;;;24.62;48.58;100105.28;5051016;28;20078;-79
2023/04/17 07:11:30;;;;;;;32.22;28.88;;;;;;;26.11;46.07;100102.56;5052552;28;20115;-79
2023/04/17 07:13:55;;;;;;;30.52;27.60;;;;;;;27.47;43.84;100084.41;5052779;28;20020;-79
2023/04/17 07:16:21;;;;;;;29.23;26.23;;;;;;;28.32;42.24;100113.28;5052470;28;20044;-79
2023/04/17 07:18:48;;;;;;;29.20;26.10;;;;;;;28.14;42.33;100110.00;5052645;28;20076;-79
2023/04/17 07:21:14;;;;;;;27.60;24.85;;;;;;;27.88;42.67;100103.06;5052225;28;20500;-78
2023/04/17 07:23:39;;;;;;;27.65;25.00;;;;;;;27.36;42.49;100114.19;5052529;28;20032;-78
2023/04/17 07:26:05;;;;;;;25.70;23.08;;;;;;;26.74;42.03;100108.47;5051543;28;20017;-78
2023/04/17 07:28:30;;;;;;;26.42;23.83;;;;;;;26.67;42.13;100118.13;5052594;28;20029;-78
2023/04/17 07:30:56;;;;;;;26.30;23.58;;;;;;;26.17;43.78;100121.59;5052257;28;20401;-78
2023/04/17 07:33:22;;;;;;;26.52;23.67;;;;;;;26.64;41.82;100118.47;5052175;28;20052;-79
2023/04/17 07:35:48;;;;;;;25.55;22.85;;;;;;;25.60;43.12;100125.63;5052159;28;20071;-78
2023/04/17 07:38:13;;;;;;;27.02;24.17;;;;;;;26.29;42.20;100129.16;5052011;28;20029;-79
2023/04/17 07:40:39;;;;;;;28.65;25.35;;;;;;;26.60;41.86;100120.63;5052075;28;20388;-77
2023/04/17 07:43:04;;;;;;;27.48;24.13;;;;;;;27.17;41.55;100117.22;5052337;28;20063;-78
2023/04/17 07:45:30;;;;;;;28.63;25.02;;;;;;;28.10;40.50;100123.72;5051918;28;20025;-78
2023/04/17 07:47:55;;;;;;;25.58;23.00;;;;;;;27.88;40.85;100100.41;5050899;28;20123;-78
2023/04/17 07:50:21;;;;;;;30.15;27.15;;;;;;;28.67;38.94;100133.38;5052020;28;20068;-78
2023/04/17 07:52:46;;;;;;;25.95;23.55;;;;;;;29.39;38.37;100121.47;5052182;28;20029;-78
2023/04/17 07:55:12;;;;;;;29.85;26.55;;;;;;;28.90;38.51;100119.97;5052038;28;20025;-78
2023/04/17 07:57:41;;;;;;;26.75;24.05;;;;;;;28.05;39.54;100139.50;5052115;28;20032;-78
2023/04/17 08:00:13;;;;;;;24.77;22.25;;;;;;;28.29;39.68;100111.78;5052089;28;20029;-78
2023/04/17 08:02:39;;;;;;;28.27;25.35;;;;;;;27.78;40.06;100131.91;5051923;28;20028;-78
2023/04/17 08:05:05;;;;;;;28.92;25.50;;;;;;;27.56;40.09;100126.22;5051855;28;20476;-78
2023/04/17 08:07:31;;;;;;;26.75;24.13;;;;;;;27.17;40.76;100128.72;5051703;28;20114;-77
2023/04/17 08:09:56;;;;;;;28.13;25.42;;;;;;;26.22;41.64;100138.00;5051790;28;20487;-77
2023/04/17 08:12:21;;;;;;;29.25;26.25;;;;;;;25.07;43.29;100134.53;5051773;28;20028;-77
2023/04/17 08:14:47;;;;;;;29.30;26.48;;;;;;;25.11;43.95;100138.59;5051947;28;20405;-77
2023/04/17 08:17:12;;;;;;;28.30;25.50;;;;;;;24.83;43.03;100144.94;5051658;28;20021;-77
2023/04/17 08:19:37;;;;;;;27.10;24.40;;;;;;;24.22;44.37;100149.03;5053110;28;20377;-77
2023/04/17 08:22:04;;;;;;;26.48;23.75;;;;;;;22.24;47.50;100126.44;5055913;28;20021;-77
2023/04/17 08:24:30;;;;;;;25.25;22.65;;;;;;;20.57;50.22;100136.97;5055542;28;20091;-77
2023/04/17 08:26:56;;;;;;;29.13;23.05;;;;;;;19.53;53.26;100152.97;5055805;28;20468;-77
2023/04/17 08:29:22;;;;;;;29.13;25.45;;;;;;;18.77;54.96;100143.66;5055820;28;20029;-77
2023/04/17 08:31:47;;;;;;;26.35;22.83;;;;;;;18.34;56.69;100157.28;5055692;28;20075;-77
2023/04/17 08:34:13;;;;;;;26.23;23.52;;;;;;;17.74;57.60;100124.53;5055519;28;20025;-76
2023/04/17 08:36:38;;;;;;;25.00;20.17;;;;;;;17.61;58.44;100148.22;5055479;28;20083;-77
2023/04/17 08:39:04;;;;;;;24.10;21.05;;;;;;;16.57;59.26;100141.03;5055454;28;20037;-76
2023/04/17 08:41:36;;;;;;;24.27;21.67;;;;;;;16.30;60.94;100156.72;5055395;28;20061;-76
2023/04/17 08:44:02;;;;;;;27.02;22.02;;;;;;;15.93;62.24;100167.72;5055418;28;20079;-76
2023/04/17 08:46:29;;;;;;;26.40;23.15;;;;;;;15.84;62.70;100170.91;5055121;28;20037;-76
2023/04/17 08:48:55;;;;;;;28.65;22.27;;;;;;;15.36;64.76;100178.09;5055681;28;20384;-76
2023/04/17 08:51:23;;;;;;;28.98;22.98;;;;;;;15.05;66.14;100167.66;5055144;28;20107;-76
2023/04/17 08:53:49;;;;;;;31.67;24.58;;;;;;;14.63;66.84;100156.88;5055157;28;20033;-76
2023/04/17 08:56:14;;;;;;;30.52;26.20;;;;;;;14.78;67.49;100170.06;5055179;28;20051;-76
2023/04/17 08:58:40;;;;;;;31.15;26.13;;;;;;;14.80;67.63;100170.81;5055351;28;20025;-74
2023/04/17 09:01:15;;;;;;;36.00;27.42;;;;;;;14.86;68.27;100167.84;5055175;28;20028;-75
2023/04/17 09:03:42;;;;;;;36.42;27.80;;;;;;;14.67;69.79;100189.00;5054990;28;20017;-75
2023/04/17 09:06:09;;;;;;;34.95;29.42;;;;;;;14.16;70.32;100165.50;5054827;28;20184;-75
2023/04/17 09:08:35;;;;;;;37.72;30.08;;;;;;;14.45;70.67;100179.66;5055001;28;20108;-75
2023/04/17 09:11:01;;;;;;;39.50;30.35;;;;;;;14.70;69.65;100186.19;5059765;28;20556;-75
2023/04/17 09:13:28;;;;;;;37.92;30.23;;;;;;;14.46;69.75;100170.03;5074726;28;20021;-75
2023/04/17 09:16:07;;;;;;;35.42;26.42;;;;;;;14.82;69.90;100189.94;5074893;28;20033;-75
2023/04/17 09:18:34;;;;;;;37.05;30.33;;;;;;;14.74;68.50;100192.97;5073178;28;20387;-75
2023/04/17 09:21:00;;;;;;;38.42;31.80;;;;;;;14.67;69.40;100173.28;5074930;28;20039;-75
2023/04/17 09:23:27;;;;;;;37.28;30.40;;;;;;;14.57;68.83;100179.94;5074364;28;20074;-75
2023/04/17 09:26:09;;;;;;;35.88;28.92;;;;;;;14.63;69.61;100197.97;5074712;28;20037;-75
2023/04/17 09:28:37;;;;;;;35.90;30.25;;;;;;;14.51;69.91;100180.28;5074468;28;20025;-75
2023/04/17 09:31:04;;;;;;;39.45;29.58;;;;;;;14.54;70.25;100194.09;5074371;28;20048;-75
2023/04/17 09:33:30;;;;;;;37.72;30.17;;;;;;;14.79;70.27;100198.84;5074148;28;20031;-75
2023/04/17 09:35:55;;;;;;;36.60;28.38;;;;;;;14.97;70.52;100194.34;5074281;28;20033;-75
2023/04/17 09:38:37;;;;;;;36.53;28.85;;;;;;;14.61;69.46;100171.81;5074287;28;20154;-75
2023/04/17 09:41:02;;;;;;;34.65;28.30;;;;;;;14.53;70.11;100194.97;5074444;28;20040;-75
2023/04/17 09:43:42;;;;;;;42.05;29.63;;;;;;;14.38;70.49;100180.06;5073986;28;20025;-75
2023/04/17 09:46:07;;;;;;;39.28;31.25;;;;;;;14.40;71.61;100199.16;5074081;28;20367;-75
2023/04/17 09:48:33;;;;;;;34.20;28.20;;;;;;;14.61;70.35;100202.44;5073919;28;20039;-75
2023/04/17 09:50:58;;;;;;;40.50;32.83;;;;;;;14.55;70.12;100184.44;5074565;28;20033;-75
2023/04/17 09:53:24;;;;;;;40.90;32.90;;;;;;;14.76;70.20;100201.63;5073889;28;20086;-75
2023/04/17 09:55:52;;;;;;;39.70;32.38;;;;;;;14.75;70.63;100202.56;5073989;28;20028;-75
2023/04/17 09:58:17;;;;;;;47.10;29.60;;;;;;;15.08;69.27;100185.84;5073711;28;20024;-75
2023/04/17 10:00:43;;;;;;;37.50;30.95;;;;;;;15.07;68.60;100198.13;5074129;28;20111;-75
2023/04/17 10:03:14;;;;;;;40.67;29.67;;;;;;;14.70;69.92;100207.19;5074010;28;20023;-75
2023/04/17 10:05:39;;;;;;;33.97;28.58;;;;;;;14.67;69.84;100208.22;5073648;28;20031;-75
2023/04/17 10:08:06;;;;;;;35.10;29.95;;;;;;;14.50;70.07;100197.78;5073916;28;20017;-75
2023/04/17 10:10:33;;;;;;;38.25;28.85;;;;;;;14.39;71.16;100195.72;5073584;28;20418;-75
2023/04/17 10:13:04;;;;;;;37.33;32.15;;;;;;;14.67;71.37;100178.53;5073667;28;20079;-75
2023/04/17 10:15:31;;;;;;;37.42;29.77;;;;;;;14.68;70.83;100186.28;5073662;28;20029;-75
2023/04/17 10:18:22;;;;;;;34.75;27.33;;;;;;;14.85;69.85;100202.88;5073820;28;20119;-75
2023/04/17 10:20:49;;;;;;;36.38;27.95;;;;;;;14.30;71.31;100200.59;5073713;28;20051;-75
2023/04/17 10:23:27;;;;;;;34.00;30.13;;;;;;;14.28;72.68;100195.41;5073595;28;20032;-75
2023/04/17 10:26:24;;;;;;;32.30;28.15;;;;;;;14.53;70.38;100199.38;5073587;28;20032;-75
2023/04/17 10:28:51;;;;;;;31.83;26.75;;;;;;;14.67;69.44;100178.53;5073813;28;20036;-75
2023/04/17 10:31:18;;;;;;;29.52;24.17;;;;;;;14.41;69.62;100167.66;5073264;28;20045;-75
2023/04/17 10:33:56;;;;;;;29.80;26.67;;;;;;;14.60;70.20;100182.41;5073247;28;20103;-75
2023/04/17 10:36:39;;;;;;;36.20;31.20;;;;;;;14.64;70.35;100141.97;5073394;28;20040;-75
2023/04/17 10:39:16;;;;;;;31.30;27.88;;;;;;;15.06;69.26;100166.72;5073275;28;20023;-75
2023/04/17 10:42:01;;;;;;;35.72;31.60;;;;;;;15.18;68.93;100182.63;5072601;28;20028;-75
2023/04/17 10:44:26;;;;;;;30.17;26.77;;;;;;;15.09;68.15;100156.91;5072792;28;20032;-75
2023/04/17 10:46:52;;;;;;;30.90;27.70;;;;;;;15.38;68.74;100167.47;5073066;28;20024;-75
2023/04/17 10:49:20;;;;;;;30.42;25.67;;;;;;;15.04;69.25;100151.06;5073009;28;20059;-75
2023/04/17 10:51:46;;;;;;;30.38;27.08;;;;;;;15.08;69.24;100172.72;5073186;28;20157;-75
2023/04/17 10:54:14;;;;;;;30.30;27.08;;;;;;;15.19;68.87;100141.47;5072866;28;20025;-75
2023/04/17 10:56:46;;;;;;;29.77;26.48;;;;;;;15.38;67.54;100170.97;5072598;28;20047;-75
2023/04/17 10:59:13;;;;;;;30.38;27.17;;;;;;;15.33;68.02;100185.28;5073024;28;20025;-75
2023/04/17 11:01:47;;;;;;;29.70;26.50;;;;;;;15.45;68.68;100174.06;5072712;28;20171;-75
2023/04/17 11:04:21;;;;;;;28.30;25.25;;;;;;;15.35;68.25;100158.03;5072853;28;20020;-75
2023/04/17 11:06:47;;;;;;;28.92;25.33;;;;;;;15.07;68.77;100178.91;5072634;28;20031;-75
2023/04/17 11:09:13;;;;;;;29.42;26.23;;;;;;;14.97;69.25;100163.69;5072527;28;20480;-75